Miyazaki, Japan

4:13 PM JST on September 02, 2014 (GMT +0900)
Miyazaki | Change Station
CLOSE
Current Station
Airport
Location: Miyazaki Airport,
Elevation: 26 ft
Nearby Weather Stations

Elev 26 ft 31.88 °N, 131.45 °E | Updated 13 minutes ago

Mostly Cloudy
Mostly Cloudy
81 °F
Feels Like 86 °F
N
7
Wind Variable Wind from NE

Today
High -- | Low -- °F
--% Chance of Precip.
Yesterday
High -- | Low -- °F
Precip. -- in
5:50 AM 6:37 PM
Waxing Crescent, 48% visible
Pressure 29.86 in
Visibility 6.2 miles
Clouds Few 1500 ft
Mostly Cloudy 14000 ft
Heat Index 86 °F
Dew Point 75 °F
Humidity 84%
Rainfall 0.00 in
Snow Depth Not available.
UV 2 out of 12
Pollen Not available.
Air Quality Not available.
Flu Activity Not available.
METAR RJFM 020700Z 04006KT 9999 FEW015 BKN140 BKN/// 27/24 Q1011

More Conditions Fewer Conditions

Pressure 29.86 in
Visibility 6.2 miles
Clouds Few 1500 ft
Mostly Cloudy 14000 ft
Heat Index 86 °F
Dew Point 75 °F
Humidity 84%
Rainfall 0.00 in
Snow Depth Not available.
UV 2 out of 12
Pollen Not available.
Air Quality Not available.
Flu Activity Not available.
METAR RJFM 020700Z 04006KT 9999 FEW015 BKN140 BKN/// 27/24 Q1011

More Conditions Fewer Conditions

10-Day Weather Forecast

Almanac

Astronomy

Sep. 02, 2014 Rise Set
Actual Time 5:50 AM JST 6:37 PM JST
Civil Twilight 5:25 AM JST 7:02 PM JST
Nautical Twilight 4:55 AM JST 7:31 PM JST
Astronomical Twilight 4:25 AM JST 8:01 PM JST
Moon 12:33 PM JST 11:23 PM JST
Length of Visible Light 13h 37m
Length of Day
12h 47m
Tomorrow will be 1m 52s shorter.
Waxing Crescent, 48% of the Moon is Illuminated
Today
Waxing Crescent
Sep 2
First Quarter
Sep 8
Full
Sep 15
Last Quarter
Sep 24
New

Yesterday's Extremes

Country Highs Country Lows

Community

WunderPhotos

Upload Photos

1,749,589 photos uploaded!

WunderBlogs® & News

Nearby

Snow Depth

Not available.

Earthquake Activity

City Distance Mag. Time & Date
No recent earthquake activity has been reported nearby.
Minimum magnitude displayed is 2.5.

Coastal Water Temperatures

Place Temperature
No Stations Reporting

Nearby Weather Stations